Terminal Aerodrome Forecast
Issued by NWS Jackson, MS

Home | Current Version | Previous Version | Text Only | Print | Product List | Glossary On
Versions: 1 2 3 4 5 6 7 8 9 10 11 12
000
FTUS44 KJAN 290538
TAFMEI
TAF
KMEI 290538Z 2906/3006 14004KT P6SM BKN015 OVC060
     FM291300 15010KT 4SM SHRA VCTS SCT015 BKN025CB
     FM300100 16008KT P6SM VCSH SCT009 BKN015=

USA.gov is the U.S. government's official web portal to all federal, state and local government web resources and services.